createdAt,value
2018-06-14T00:01:43.243Z,14.10
2018-06-14T00:04:13.544Z,14.10
2018-06-14T00:06:42.808Z,14.00
2018-06-14T00:09:11.830Z,14.00
2018-06-14T00:11:40.104Z,14.10
2018-06-14T00:14:09.577Z,14.00
2018-06-14T00:16:37.841Z,13.90
2018-06-14T00:19:06.139Z,13.90
2018-06-14T00:21:34.438Z,13.90
2018-06-14T00:24:02.698Z,13.80
2018-06-14T00:26:30.962Z,13.70
2018-06-14T00:28:59.253Z,13.70
2018-06-14T00:31:27.557Z,13.80
2018-06-14T00:33:55.840Z,13.80
2018-06-14T00:36:24.117Z,13.80
2018-06-14T00:38:52.373Z,13.70
2018-06-14T00:41:20.680Z,13.60
2018-06-14T00:43:48.941Z,13.60
2018-06-14T00:46:17.210Z,13.60
2018-06-14T00:48:46.877Z,13.60
2018-06-14T00:51:16.524Z,13.60
2018-06-14T00:53:45.686Z,13.60
2018-06-14T00:56:14.002Z,13.60
2018-06-14T00:58:43.520Z,13.60
2018-06-14T01:01:12.909Z,13.60
2018-06-14T01:03:41.197Z,13.60
2018-06-14T01:06:09.478Z,13.60
2018-06-14T01:08:37.736Z,13.60
2018-06-14T01:11:06.006Z,13.50
2018-06-14T01:13:34.265Z,13.50
2018-06-14T01:16:02.562Z,13.50
2018-06-14T01:18:30.852Z,13.50
2018-06-14T01:20:59.141Z,13.60
2018-06-14T01:23:27.409Z,13.60
2018-06-14T01:26:01.688Z,13.60
2018-06-14T01:28:29.943Z,13.50
2018-06-14T01:30:58.195Z,13.60
2018-06-14T01:33:26.495Z,13.60
2018-06-14T01:35:54.752Z,13.60
2018-06-14T01:38:23.040Z,13.70
2018-06-14T01:40:51.315Z,13.60
2018-06-14T01:43:19.603Z,13.60
2018-06-14T01:45:47.857Z,13.60
2018-06-14T01:48:16.148Z,13.60
2018-06-14T01:50:44.502Z,13.60
2018-06-14T01:53:14.192Z,13.50
2018-06-14T01:55:43.811Z,13.40
2018-06-14T01:58:14.525Z,13.50
2018-06-14T02:00:44.550Z,13.40
2018-06-14T02:03:14.501Z,13.40
2018-06-14T02:05:43.328Z,13.40
2018-06-14T02:08:12.713Z,13.30
2018-06-14T02:10:41.782Z,13.30
2018-06-14T02:13:10.073Z,13.30
2018-06-14T02:15:38.364Z,13.30
2018-06-14T02:18:06.626Z,13.30
2018-06-14T02:20:34.912Z,13.30
2018-06-14T02:23:03.167Z,13.40
2018-06-14T02:25:31.427Z,13.40
2018-06-14T02:27:59.733Z,13.30
2018-06-14T02:30:28.000Z,13.30
2018-06-14T02:32:56.284Z,13.30
2018-06-14T02:35:24.548Z,13.20
2018-06-14T02:37:52.838Z,13.20
2018-06-14T02:40:21.129Z,13.20
2018-06-14T02:42:49.416Z,13.20
2018-06-14T02:45:17.716Z,13.10
2018-06-14T02:47:46.423Z,13.10
2018-06-14T02:50:16.023Z,13.10
2018-06-14T02:52:45.444Z,13.00
2018-06-14T02:55:13.737Z,13.00
2018-06-14T02:57:41.993Z,12.90
2018-06-14T03:00:10.273Z,13.00
2018-06-14T03:02:38.568Z,13.00
2018-06-14T03:05:06.849Z,12.90
2018-06-14T03:07:35.137Z,12.90
2018-06-14T03:10:03.388Z,12.80
2018-06-14T03:12:31.672Z,12.80
2018-06-14T03:14:59.964Z,12.90
2018-06-14T03:17:28.247Z,12.90
2018-06-14T03:19:56.549Z,12.90
2018-06-14T03:22:24.803Z,12.80
2018-06-14T03:24:53.103Z,12.90
2018-06-14T03:27:20.583Z,12.80
2018-06-14T03:29:48.836Z,12.80
2018-06-14T03:32:17.120Z,12.80
2018-06-14T03:34:46.667Z,12.80
2018-06-14T03:37:14.969Z,12.80
2018-06-14T03:39:43.227Z,12.80
2018-06-14T03:42:12.550Z,12.90
2018-06-14T03:44:42.356Z,12.90
2018-06-14T03:47:10.630Z,12.90
2018-06-14T03:49:38.900Z,12.90
2018-06-14T03:52:07.146Z,12.90
2018-06-14T03:54:35.428Z,12.90
2018-06-14T03:57:03.685Z,12.90
2018-06-14T03:59:31.956Z,12.90
2018-06-14T04:02:00.208Z,13.00
2018-06-14T04:04:29.397Z,13.10
2018-06-14T04:06:57.664Z,13.10
2018-06-14T04:09:25.945Z,13.10
2018-06-14T04:11:53.429Z,13.10
2018-06-14T04:14:23.612Z,13.20
2018-06-14T04:16:51.869Z,13.30
2018-06-14T04:19:20.158Z,13.20
2018-06-14T04:21:48.417Z,13.30
2018-06-14T04:24:20.060Z,13.40
2018-06-14T04:26:48.311Z,13.40
2018-06-14T04:29:16.594Z,13.40
2018-06-14T04:31:45.808Z,13.40
2018-06-14T04:34:17.224Z,13.40
2018-06-14T04:36:46.676Z,13.40
2018-06-14T04:39:16.095Z,13.50
2018-06-14T04:41:45.477Z,13.60
2018-06-14T04:44:13.768Z,13.70
2018-06-14T04:46:42.027Z,13.70
2018-06-14T04:49:10.317Z,13.70
2018-06-14T04:51:38.625Z,13.70
2018-06-14T04:54:07.920Z,13.70
2018-06-14T04:56:35.418Z,13.70
2018-06-14T04:59:03.695Z,13.90
2018-06-14T05:01:31.959Z,14.00
2018-06-14T05:04:00.252Z,14.10
2018-06-14T05:06:28.556Z,14.10
2018-06-14T05:08:56.840Z,14.10
2018-06-14T05:11:25.114Z,14.20
2018-06-14T05:13:53.391Z,14.20
2018-06-14T05:16:21.692Z,14.20
2018-06-14T05:18:49.991Z,14.20
2018-06-14T05:21:18.248Z,14.30
2018-06-14T05:23:46.539Z,14.40
2018-06-14T05:26:15.720Z,14.40
2018-06-14T05:28:44.767Z,14.40
2018-06-14T05:31:16.748Z,14.40
2018-06-14T05:33:45.491Z,14.50
2018-06-14T05:36:13.748Z,14.50
2018-06-14T05:38:42.872Z,14.60
2018-06-14T05:41:11.848Z,14.70
2018-06-14T05:43:40.132Z,14.70
2018-06-14T05:46:08.427Z,14.70
2018-06-14T05:48:36.684Z,14.70
2018-06-14T05:51:04.961Z,14.70
2018-06-14T05:53:33.247Z,14.80
2018-06-14T05:56:01.542Z,14.80
2018-06-14T05:58:29.812Z,14.80
2018-06-14T06:00:58.093Z,14.90
2018-06-14T06:03:26.356Z,14.90
2018-06-14T06:05:53.878Z,14.90
2018-06-14T06:08:22.173Z,15.00
2018-06-14T06:10:50.455Z,15.10
2018-06-14T06:13:18.740Z,15.10
2018-06-14T06:15:47.039Z,15.20
2018-06-14T06:18:15.815Z,15.20
2018-06-14T06:20:44.568Z,15.20
2018-06-14T06:23:14.577Z,15.30
2018-06-14T06:25:44.595Z,15.40
2018-06-14T06:28:14.791Z,15.50
2018-06-14T06:30:44.119Z,15.50
2018-06-14T06:33:13.617Z,15.60
2018-06-14T06:35:42.721Z,15.60
2018-06-14T06:38:11.818Z,15.70
2018-06-14T06:40:40.069Z,15.70
2018-06-14T06:43:08.366Z,15.80
2018-06-14T06:45:36.948Z,15.90
2018-06-14T06:48:05.201Z,16.00
2018-06-14T06:50:33.465Z,16.00
2018-06-14T06:53:01.755Z,16.10
2018-06-14T06:55:30.025Z,16.20
2018-06-14T06:57:58.343Z,16.20
2018-06-14T07:00:26.598Z,16.30
2018-06-14T07:02:54.857Z,16.40
2018-06-14T07:05:23.133Z,16.40
2018-06-14T07:07:51.392Z,16.50
2018-06-14T07:10:19.668Z,16.60
2018-06-14T07:12:47.923Z,16.50
2018-06-14T07:15:16.220Z,16.70
2018-06-14T07:17:45.640Z,16.70
2018-06-14T07:20:14.597Z,16.80
2018-06-14T07:22:44.655Z,16.90
2018-06-14T07:25:15.916Z,17.10
2018-06-14T07:27:44.612Z,17.10
2018-06-14T07:30:16.591Z,17.20
2018-06-14T07:32:45.692Z,17.30
2018-06-14T07:35:14.703Z,17.30
2018-06-14T07:37:45.428Z,17.40
2018-06-14T07:40:13.699Z,17.60
2018-06-14T07:42:42.824Z,17.50
2018-06-14T07:45:11.921Z,17.70
2018-06-14T07:47:40.174Z,17.90
2018-06-14T07:50:08.445Z,18.00
2018-06-14T07:52:36.714Z,18.10
2018-06-14T07:55:05.012Z,18.20
2018-06-14T07:57:33.273Z,18.30
2018-06-14T08:00:01.606Z,18.40
2018-06-14T08:02:29.819Z,18.70
2018-06-14T08:04:58.089Z,18.70
2018-06-14T08:07:26.378Z,18.60
2018-06-14T08:09:54.627Z,18.60
2018-06-14T08:12:22.934Z,18.70
2018-06-14T08:14:51.175Z,18.80
2018-06-14T08:17:19.452Z,18.90
2018-06-14T08:19:47.712Z,19.10
2018-06-14T08:22:17.200Z,19.30
2018-06-14T08:24:46.719Z,19.30
2018-06-14T08:27:15.876Z,19.40
2018-06-14T08:29:44.610Z,19.40
2018-06-14T08:32:15.257Z,19.50
2018-06-14T08:34:43.826Z,19.50
2018-06-14T08:37:12.126Z,19.40
2018-06-14T08:39:40.393Z,19.30
2018-06-14T08:42:08.654Z,19.30
2018-06-14T08:44:36.949Z,19.20
2018-06-14T08:47:05.203Z,19.10
2018-06-14T08:49:33.498Z,19.00
2018-06-14T08:52:01.760Z,18.90
2018-06-14T08:54:30.054Z,18.90
2018-06-14T08:56:58.350Z,19.10
2018-06-14T08:59:26.619Z,19.20
2018-06-14T09:01:55.575Z,19.50
2018-06-14T09:04:23.856Z,19.70
2018-06-14T09:06:52.133Z,19.90
2018-06-14T09:09:20.424Z,20.10
2018-06-14T09:11:48.672Z,20.20
2018-06-14T09:14:16.966Z,20.30
2018-06-14T09:16:45.244Z,20.40
2018-06-14T09:19:13.513Z,20.50
2018-06-14T09:21:43.204Z,20.50
2018-06-14T09:24:12.628Z,20.40
2018-06-14T09:26:42.456Z,20.30
2018-06-14T09:29:10.721Z,20.60
2018-06-14T09:31:39.015Z,20.80
2018-06-14T09:34:06.505Z,20.80
2018-06-14T09:36:34.797Z,21.10
2018-06-14T09:39:02.324Z,21.10
2018-06-14T09:41:30.582Z,20.90
2018-06-14T09:43:58.862Z,20.70
2018-06-14T09:46:27.119Z,20.60
2018-06-14T09:48:55.388Z,20.60
2018-06-14T09:51:23.631Z,20.80
2018-06-14T09:53:51.900Z,21.00
2018-06-14T09:56:20.180Z,21.20
2018-06-14T09:58:48.455Z,21.20
2018-06-14T10:01:16.725Z,21.00
2018-06-14T10:03:45.881Z,21.00
2018-06-14T10:06:13.387Z,21.00
2018-06-14T10:08:42.229Z,20.90
2018-06-14T10:11:10.488Z,20.90
2018-06-14T10:13:38.764Z,21.10
2018-06-14T10:16:07.025Z,21.30
2018-06-14T10:18:35.346Z,21.40
2018-06-14T10:21:03.657Z,21.50
2018-06-14T10:23:31.952Z,21.40
2018-06-14T10:26:00.216Z,21.40
2018-06-14T10:28:28.495Z,21.40
2018-06-14T10:30:56.779Z,21.50
2018-06-14T10:33:25.067Z,21.50
2018-06-14T10:35:53.312Z,21.60
2018-06-14T10:38:21.611Z,21.60
2018-06-14T10:40:49.862Z,21.50
2018-06-14T10:43:18.121Z,21.50
2018-06-14T10:45:46.912Z,21.50
2018-06-14T10:48:17.355Z,21.40
2018-06-14T10:50:46.900Z,21.70
2018-06-14T10:53:15.171Z,21.90
2018-06-14T10:55:43.454Z,21.70
2018-06-14T10:58:12.572Z,21.80
2018-06-14T11:00:41.628Z,21.60
2018-06-14T11:03:09.881Z,21.60
2018-06-14T11:05:38.136Z,21.50
2018-06-14T11:08:06.395Z,21.40
2018-06-14T11:10:34.687Z,21.50
2018-06-14T11:13:02.933Z,21.50
2018-06-14T11:15:31.201Z,21.50
2018-06-14T11:17:59.503Z,21.40
2018-06-14T11:20:27.761Z,21.60
2018-06-14T11:22:56.044Z,21.50
2018-06-14T11:25:24.323Z,21.50
2018-06-14T11:27:52.575Z,21.60
2018-06-14T11:30:20.863Z,21.70
2018-06-14T11:32:49.131Z,21.80
2018-06-14T11:35:17.395Z,21.90
2018-06-14T11:37:46.803Z,21.90
2018-06-14T11:40:15.950Z,22.00
2018-06-14T11:42:44.691Z,22.00
2018-06-14T11:45:19.288Z,21.90
2018-06-14T11:47:47.549Z,21.80
2018-06-14T11:50:16.772Z,21.90
2018-06-14T11:52:46.066Z,22.00
2018-06-14T11:55:14.840Z,22.20
2018-06-14T11:57:43.778Z,22.40
2018-06-14T12:00:12.061Z,22.60
2018-06-14T12:02:40.317Z,22.60
2018-06-14T12:05:08.603Z,22.60
2018-06-14T12:07:36.855Z,22.50
2018-06-14T12:10:05.148Z,22.50
2018-06-14T12:12:33.405Z,22.40
2018-06-14T12:15:02.693Z,22.30
2018-06-14T12:17:30.912Z,22.30
2018-06-14T12:19:59.164Z,22.30
2018-06-14T12:22:27.445Z,22.20
2018-06-14T12:24:56.646Z,22.30
2018-06-14T12:27:24.961Z,22.40
2018-06-14T12:29:53.219Z,22.40
2018-06-14T12:32:21.470Z,22.30
2018-06-14T12:34:49.748Z,22.30
2018-06-14T12:37:17.228Z,22.30
2018-06-14T12:39:50.727Z,22.20
2018-06-14T12:42:18.975Z,22.30
2018-06-14T12:44:50.918Z,22.40
2018-06-14T12:47:19.174Z,22.40
2018-06-14T12:49:47.437Z,22.50
2018-06-14T12:52:15.764Z,22.40
2018-06-14T12:54:45.305Z,22.30
2018-06-14T12:57:13.599Z,22.10
2018-06-14T12:59:42.852Z,22.20
2018-06-14T13:02:11.852Z,22.10
2018-06-14T13:04:40.148Z,22.10
2018-06-14T13:07:08.401Z,22.10
2018-06-14T13:09:37.615Z,22.00
2018-06-14T13:12:05.895Z,22.00
2018-06-14T13:14:36.137Z,22.00
2018-06-14T13:17:04.413Z,22.00
2018-06-14T13:19:32.665Z,22.00
2018-06-14T13:22:01.004Z,22.00
2018-06-14T13:24:29.226Z,22.00
2018-06-14T13:26:57.513Z,22.00
2018-06-14T13:29:25.801Z,21.80
2018-06-14T13:31:54.056Z,21.90
2018-06-14T13:34:23.303Z,21.80
2018-06-14T13:36:51.561Z,21.90
2018-06-14T13:39:19.807Z,21.90
2018-06-14T13:41:48.089Z,21.70
2018-06-14T13:44:17.255Z,21.70
2018-06-14T13:46:46.530Z,21.50
2018-06-14T13:49:16.091Z,21.50
2018-06-14T13:51:44.752Z,21.50
2018-06-14T13:54:13.729Z,21.40
2018-06-14T13:56:42.928Z,21.20
2018-06-14T13:59:12.125Z,21.00
2018-06-14T14:01:40.393Z,20.80
2018-06-14T14:04:09.553Z,20.80
2018-06-14T14:06:37.842Z,20.90
2018-06-14T14:09:06.090Z,20.80
2018-06-14T14:11:34.384Z,20.70
2018-06-14T14:14:02.636Z,20.50
2018-06-14T14:16:30.929Z,20.50
2018-06-14T14:18:59.185Z,20.40
2018-06-14T14:21:27.432Z,20.40
2018-06-14T14:23:55.762Z,20.40
2018-06-14T14:26:23.978Z,20.40
2018-06-14T14:28:52.251Z,20.30
2018-06-14T14:31:20.549Z,20.30
2018-06-14T14:33:48.798Z,20.30
2018-06-14T14:36:17.052Z,20.20
2018-06-14T14:38:45.329Z,20.20
2018-06-14T14:41:13.600Z,20.10
2018-06-14T14:43:42.785Z,20.00
2018-06-14T14:46:11.725Z,20.00
2018-06-14T14:48:40.005Z,19.80
2018-06-14T14:51:08.263Z,19.70
2018-06-14T14:53:36.543Z,19.70
2018-06-14T14:56:04.792Z,19.60
2018-06-14T14:58:33.133Z,19.70
2018-06-14T15:01:01.360Z,19.80
2018-06-14T15:03:29.639Z,19.80
2018-06-14T15:05:57.893Z,19.90
2018-06-14T15:08:26.156Z,19.90
2018-06-14T15:10:54.428Z,19.90
2018-06-14T15:13:22.692Z,19.90
2018-06-14T15:15:50.977Z,19.80
2018-06-14T15:18:19.223Z,19.80
2018-06-14T15:20:47.521Z,19.70
2018-06-14T15:23:17.166Z,19.80
2018-06-14T15:25:45.454Z,19.70
2018-06-14T15:28:13.703Z,19.70
2018-06-14T15:30:42.970Z,19.60
2018-06-14T15:33:11.228Z,19.60
2018-06-14T15:35:39.508Z,19.60
2018-06-14T15:38:07.757Z,19.40
2018-06-14T15:40:36.037Z,19.50
2018-06-14T15:43:04.328Z,19.50
2018-06-14T15:45:32.593Z,19.40
2018-06-14T15:48:00.875Z,19.30
2018-06-14T15:50:29.150Z,19.30
2018-06-14T15:52:57.444Z,19.20
2018-06-14T15:55:30.213Z,19.20
2018-06-14T15:57:58.500Z,19.20
2018-06-14T16:00:26.748Z,19.20
2018-06-14T16:02:55.123Z,19.20
2018-06-14T16:05:23.381Z,19.20
2018-06-14T16:07:51.657Z,19.20
2018-06-14T16:10:19.942Z,19.30
2018-06-14T16:12:48.213Z,19.30
2018-06-14T16:15:16.444Z,19.30
2018-06-14T16:17:44.793Z,19.30
2018-06-14T16:20:13.759Z,19.30
2018-06-14T16:22:42.613Z,19.30
2018-06-14T16:25:12.018Z,19.30
2018-06-14T16:27:40.285Z,19.30
2018-06-14T16:30:08.588Z,19.30
2018-06-14T16:32:36.076Z,19.30
2018-06-14T16:35:04.364Z,19.30
2018-06-14T16:37:32.647Z,19.30
2018-06-14T16:40:00.935Z,19.30
2018-06-14T16:42:29.203Z,19.20
2018-06-14T16:44:57.518Z,19.10
2018-06-14T16:47:25.009Z,19.20
2018-06-14T16:49:53.267Z,19.10
2018-06-14T16:52:21.549Z,19.10
2018-06-14T16:54:49.799Z,19.10
2018-06-14T16:57:18.085Z,19.00
2018-06-14T16:59:46.907Z,19.00
2018-06-14T17:02:15.734Z,19.00
2018-06-14T17:04:47.354Z,19.00
2018-06-14T17:07:16.416Z,19.00
2018-06-14T17:09:45.407Z,19.00
2018-06-14T17:12:13.728Z,19.00
2018-06-14T17:14:42.466Z,19.00
2018-06-14T17:17:10.742Z,19.00
2018-06-14T17:19:39.031Z,19.00
2018-06-14T17:22:07.293Z,18.90
2018-06-14T17:24:35.565Z,18.90
2018-06-14T17:27:03.856Z,19.00
2018-06-14T17:29:32.113Z,19.10
2018-06-14T17:32:00.397Z,19.00
2018-06-14T17:34:28.643Z,19.00
2018-06-14T17:36:56.932Z,19.00
2018-06-14T17:39:25.209Z,19.00
2018-06-14T17:41:53.495Z,19.00
2018-06-14T17:44:21.794Z,18.90
2018-06-14T17:46:50.053Z,18.80
2018-06-14T17:49:18.341Z,18.80
2018-06-14T17:51:46.620Z,18.90
2018-06-14T17:54:15.602Z,18.90
2018-06-14T17:56:43.853Z,18.90
2018-06-14T17:59:12.123Z,18.90
2018-06-14T18:01:40.485Z,18.90
2018-06-14T18:04:08.724Z,18.90
2018-06-14T18:06:36.988Z,18.90
2018-06-14T18:09:05.264Z,18.90
2018-06-14T18:11:33.569Z,18.90
2018-06-14T18:14:01.854Z,18.80
2018-06-14T18:16:30.158Z,18.80
2018-06-14T18:18:58.454Z,18.80
2018-06-14T18:21:26.720Z,18.80
2018-06-14T18:23:55.013Z,18.70
2018-06-14T18:26:23.261Z,18.60
2018-06-14T18:28:51.559Z,18.50
2018-06-14T18:31:19.821Z,18.50
2018-06-14T18:33:48.208Z,18.50
2018-06-14T18:36:16.472Z,18.50
2018-06-14T18:38:45.857Z,18.50
2018-06-14T18:41:14.873Z,18.50
2018-06-14T18:43:43.140Z,18.50
2018-06-14T18:46:12.457Z,18.50
2018-06-14T18:48:40.720Z,18.50
2018-06-14T18:51:09.026Z,18.50
2018-06-14T18:53:37.284Z,18.70
2018-06-14T18:56:05.581Z,18.30
2018-06-14T18:58:33.855Z,17.80
2018-06-14T19:01:02.168Z,17.70
2018-06-14T19:03:30.432Z,17.50
2018-06-14T19:05:58.728Z,17.50
2018-06-14T19:08:26.976Z,17.40
2018-06-14T19:10:55.276Z,17.30
2018-06-14T19:13:23.527Z,17.30
2018-06-14T19:15:51.783Z,17.30
2018-06-14T19:18:20.081Z,17.20
2018-06-14T19:20:48.331Z,17.30
2018-06-14T19:23:16.629Z,17.20
2018-06-14T19:25:45.584Z,17.20
2018-06-14T19:28:13.915Z,17.20
2018-06-14T19:30:42.161Z,17.20
2018-06-14T19:33:10.453Z,17.20
2018-06-14T19:35:38.716Z,17.20
2018-06-14T19:38:06.992Z,17.20
2018-06-14T19:40:35.243Z,17.20
2018-06-14T19:43:03.589Z,17.20
2018-06-14T19:45:31.857Z,17.20
2018-06-14T19:48:00.141Z,17.20
2018-06-14T19:50:28.399Z,17.40
2018-06-14T19:52:56.685Z,17.40
2018-06-14T19:55:24.968Z,17.40
2018-06-14T19:57:53.229Z,17.40
2018-06-14T20:00:21.525Z,17.30
2018-06-14T20:02:49.792Z,17.40
2018-06-14T20:05:18.081Z,17.40
2018-06-14T20:07:47.079Z,17.30
2018-06-14T20:10:15.393Z,17.30
2018-06-14T20:12:44.062Z,17.30
2018-06-14T20:15:13.506Z,17.40
2018-06-14T20:17:42.492Z,17.40
2018-06-14T20:20:10.748Z,17.40
2018-06-14T20:22:39.032Z,17.40
2018-06-14T20:25:07.292Z,17.50
2018-06-14T20:27:35.572Z,17.60
2018-06-14T20:30:03.831Z,17.50
2018-06-14T20:32:32.122Z,17.50
2018-06-14T20:35:00.408Z,17.50
2018-06-14T20:37:28.677Z,17.50
2018-06-14T20:39:56.965Z,17.50
2018-06-14T20:42:25.232Z,17.50
2018-06-14T20:44:53.513Z,17.60
2018-06-14T20:47:21.809Z,17.60
2018-06-14T20:49:50.076Z,17.60
2018-06-14T20:52:18.365Z,17.60
2018-06-14T20:54:46.661Z,17.60
2018-06-14T20:57:14.943Z,17.60
2018-06-14T20:59:43.214Z,17.60
2018-06-14T21:02:13.438Z,17.70
2018-06-14T21:04:42.723Z,17.60
2018-06-14T21:07:11.792Z,17.60
2018-06-14T21:09:40.096Z,17.70
2018-06-14T21:12:07.599Z,17.60
2018-06-14T21:14:36.757Z,17.60
2018-06-14T21:17:05.040Z,17.60
2018-06-14T21:19:33.296Z,17.50
2018-06-14T21:22:01.573Z,17.50
2018-06-14T21:24:29.846Z,17.60
2018-06-14T21:26:58.140Z,17.50
2018-06-14T21:29:26.397Z,17.60
2018-06-14T21:31:54.677Z,17.60
2018-06-14T21:34:23.831Z,17.70
2018-06-14T21:36:52.121Z,17.60
2018-06-14T21:39:20.382Z,17.60
2018-06-14T21:41:48.660Z,17.50
2018-06-14T21:44:16.947Z,17.40
2018-06-14T21:46:46.231Z,17.40
2018-06-14T21:49:14.898Z,17.40
2018-06-14T21:51:43.823Z,17.40
2018-06-14T21:54:12.104Z,17.30
2018-06-14T21:56:40.404Z,17.30
2018-06-14T21:59:08.694Z,17.30
2018-06-14T22:01:36.986Z,17.30
2018-06-14T22:04:05.281Z,17.30
2018-06-14T22:06:33.563Z,17.20
2018-06-14T22:09:01.832Z,17.30
2018-06-14T22:11:30.118Z,17.40
2018-06-14T22:13:58.376Z,17.40
2018-06-14T22:16:26.659Z,17.30
2018-06-14T22:18:54.916Z,17.30
2018-06-14T22:21:23.191Z,17.30
2018-06-14T22:23:51.453Z,17.30
2018-06-14T22:26:19.740Z,17.30
2018-06-14T22:28:47.996Z,17.30
2018-06-14T22:31:17.489Z,17.30
2018-06-14T22:33:57.696Z,17.20
2018-06-14T22:36:25.956Z,17.20
2018-06-14T22:38:54.240Z,17.20
2018-06-14T22:41:22.528Z,17.20
2018-06-14T22:43:50.820Z,17.20
2018-06-14T22:46:19.095Z,17.30
2018-06-14T22:48:47.393Z,17.30
2018-06-14T22:51:16.455Z,17.30
2018-06-14T22:53:45.738Z,17.30
2018-06-14T22:56:13.992Z,17.30
2018-06-14T22:58:43.249Z,17.20
2018-06-14T23:01:12.452Z,17.20
2018-06-14T23:03:40.701Z,17.20
2018-06-14T23:06:08.985Z,17.20
2018-06-14T23:08:37.238Z,17.20
2018-06-14T23:11:17.457Z,17.20
2018-06-14T23:13:46.741Z,17.30
2018-06-14T23:16:16.611Z,17.30
2018-06-14T23:18:45.405Z,17.30
2018-06-14T23:21:13.656Z,17.30
2018-06-14T23:23:42.937Z,17.30
2018-06-14T23:26:11.213Z,17.30
2018-06-14T23:28:39.500Z,17.30
2018-06-14T23:31:07.761Z,17.30
2018-06-14T23:33:36.045Z,17.30
2018-06-14T23:36:03.537Z,17.30
2018-06-14T23:38:31.826Z,17.30
2018-06-14T23:41:00.084Z,17.30
2018-06-14T23:43:28.374Z,17.30
2018-06-14T23:45:56.658Z,17.30
2018-06-14T23:48:24.912Z,17.40
2018-06-14T23:50:53.197Z,17.40
2018-06-14T23:53:21.464Z,17.30
2018-06-14T23:55:49.749Z,17.30
2018-06-14T23:58:18.000Z,17.30
